sensor_id;sensor_type;location;lat;lon;timestamp;P1;durP1;ratioP1;P2;durP2;ratioP2
545;SDS011;259;53.304;9.816;2023-03-02T00:01:40;4.50;;;4.20;;
545;SDS011;259;53.304;9.816;2023-03-02T00:04:20;4.47;;;4.17;;
545;SDS011;259;53.304;9.816;2023-03-02T00:06:50;4.40;;;4.10;;
545;SDS011;259;53.304;9.816;2023-03-02T00:09:20;4.30;;;4.00;;
545;SDS011;259;53.304;9.816;2023-03-02T00:11:46;4.50;;;4.20;;
545;SDS011;259;53.304;9.816;2023-03-02T00:14:12;3.73;;;3.53;;
545;SDS011;259;53.304;9.816;2023-03-02T00:16:37;3.90;;;3.60;;
545;SDS011;259;53.304;9.816;2023-03-02T00:19:04;4.73;;;4.40;;
545;SDS011;259;53.304;9.816;2023-03-02T00:21:30;4.03;;;3.73;;
545;SDS011;259;53.304;9.816;2023-03-02T00:23:56;4.00;;;3.70;;
545;SDS011;259;53.304;9.816;2023-03-02T00:26:21;4.20;;;3.90;;
545;SDS011;259;53.304;9.816;2023-03-02T00:28:47;3.80;;;3.60;;
545;SDS011;259;53.304;9.816;2023-03-02T00:31:14;4.00;;;3.80;;
545;SDS011;259;53.304;9.816;2023-03-02T00:33:39;4.50;;;4.20;;
545;SDS011;259;53.304;9.816;2023-03-02T00:36:05;4.10;;;3.80;;
545;SDS011;259;53.304;9.816;2023-03-02T00:38:38;5.20;;;4.80;;
545;SDS011;259;53.304;9.816;2023-03-02T00:41:04;3.50;;;3.30;;
545;SDS011;259;53.304;9.816;2023-03-02T00:43:30;4.00;;;3.80;;
545;SDS011;259;53.304;9.816;2023-03-02T00:45:55;4.00;;;3.70;;
545;SDS011;259;53.304;9.816;2023-03-02T00:48:22;3.93;;;3.63;;
545;SDS011;259;53.304;9.816;2023-03-02T00:50:48;3.60;;;3.40;;
545;SDS011;259;53.304;9.816;2023-03-02T00:53:14;3.73;;;3.53;;
545;SDS011;259;53.304;9.816;2023-03-02T00:55:41;3.90;;;3.60;;
545;SDS011;259;53.304;9.816;2023-03-02T00:58:16;3.90;;;3.60;;
545;SDS011;259;53.304;9.816;2023-03-02T01:00:42;3.63;;;3.43;;
545;SDS011;259;53.304;9.816;2023-03-02T01:03:08;3.63;;;3.43;;
545;SDS011;259;53.304;9.816;2023-03-02T01:05:35;3.20;;;3.00;;
545;SDS011;259;53.304;9.816;2023-03-02T01:08:01;3.53;;;3.33;;
545;SDS011;259;53.304;9.816;2023-03-02T01:10:27;3.73;;;3.43;;
545;SDS011;259;53.304;9.816;2023-03-02T01:12:55;3.40;;;3.20;;
545;SDS011;259;53.304;9.816;2023-03-02T01:15:21;3.57;;;3.30;;
545;SDS011;259;53.304;9.816;2023-03-02T01:17:47;3.60;;;3.40;;
545;SDS011;259;53.304;9.816;2023-03-02T01:20:12;3.40;;;3.20;;
545;SDS011;259;53.304;9.816;2023-03-02T01:22:39;3.93;;;3.70;;
545;SDS011;259;53.304;9.816;2023-03-02T01:25:04;3.20;;;3.00;;
545;SDS011;259;53.304;9.816;2023-03-02T01:27:30;3.50;;;3.30;;
545;SDS011;259;53.304;9.816;2023-03-02T01:29:56;3.50;;;3.30;;
545;SDS011;259;53.304;9.816;2023-03-02T01:32:22;3.50;;;3.30;;
545;SDS011;259;53.304;9.816;2023-03-02T01:34:48;2.93;;;2.73;;
545;SDS011;259;53.304;9.816;2023-03-02T01:37:13;3.57;;;3.37;;
545;SDS011;259;53.304;9.816;2023-03-02T01:39:39;3.40;;;3.20;;
545;SDS011;259;53.304;9.816;2023-03-02T01:42:05;3.43;;;3.13;;
545;SDS011;259;53.304;9.816;2023-03-02T01:44:44;3.20;;;3.00;;
545;SDS011;259;53.304;9.816;2023-03-02T01:52:44;3.73;;;3.43;;
545;SDS011;259;53.304;9.816;2023-03-02T01:55:11;3.33;;;3.13;;
545;SDS011;259;53.304;9.816;2023-03-02T01:57:42;3.80;;;3.50;;
545;SDS011;259;53.304;9.816;2023-03-02T02:00:12;3.00;;;2.80;;
545;SDS011;259;53.304;9.816;2023-03-02T02:02:43;3.30;;;3.10;;
545;SDS011;259;53.304;9.816;2023-03-02T02:05:10;3.13;;;2.93;;
545;SDS011;259;53.304;9.816;2023-03-02T02:07:43;3.93;;;3.73;;
545;SDS011;259;53.304;9.816;2023-03-02T02:10:10;3.20;;;3.00;;
545;SDS011;259;53.304;9.816;2023-03-02T02:12:36;3.67;;;3.47;;
545;SDS011;259;53.304;9.816;2023-03-02T02:15:02;3.63;;;3.43;;
545;SDS011;259;53.304;9.816;2023-03-02T02:17:29;3.47;;;3.27;;
545;SDS011;259;53.304;9.816;2023-03-02T02:28:27;3.23;;;3.03;;
545;SDS011;259;53.304;9.816;2023-03-02T02:31:39;3.53;;;3.33;;
545;SDS011;259;53.304;9.816;2023-03-02T02:34:16;3.80;;;3.50;;
545;SDS011;259;53.304;9.816;2023-03-02T02:36:58;3.53;;;3.33;;
545;SDS011;259;53.304;9.816;2023-03-02T02:39:49;3.40;;;3.20;;
545;SDS011;259;53.304;9.816;2023-03-02T02:42:26;2.90;;;2.70;;
545;SDS011;259;53.304;9.816;2023-03-02T02:44:57;3.53;;;3.33;;
545;SDS011;259;53.304;9.816;2023-03-02T02:47:28;3.47;;;3.20;;
545;SDS011;259;53.304;9.816;2023-03-02T02:49:54;3.20;;;3.00;;
545;SDS011;259;53.304;9.816;2023-03-02T02:52:22;3.00;;;2.80;;
545;SDS011;259;53.304;9.816;2023-03-02T02:54:52;3.40;;;3.20;;
545;SDS011;259;53.304;9.816;2023-03-02T02:57:20;3.00;;;2.80;;
545;SDS011;259;53.304;9.816;2023-03-02T02:59:51;3.03;;;2.83;;
545;SDS011;259;53.304;9.816;2023-03-02T03:02:21;3.53;;;3.33;;
545;SDS011;259;53.304;9.816;2023-03-02T03:04:50;3.13;;;2.93;;
545;SDS011;259;53.304;9.816;2023-03-02T03:07:23;3.20;;;3.00;;
545;SDS011;259;53.304;9.816;2023-03-02T03:09:54;2.77;;;2.57;;
545;SDS011;259;53.304;9.816;2023-03-02T03:12:35;3.33;;;3.13;;
545;SDS011;259;53.304;9.816;2023-03-02T03:15:04;3.33;;;3.07;;
545;SDS011;259;53.304;9.816;2023-03-02T03:17:31;2.63;;;2.50;;
545;SDS011;259;53.304;9.816;2023-03-02T03:19:56;2.80;;;2.60;;
545;SDS011;259;53.304;9.816;2023-03-02T03:22:30;2.67;;;2.47;;
545;SDS011;259;53.304;9.816;2023-03-02T03:25:01;2.77;;;2.57;;
545;SDS011;259;53.304;9.816;2023-03-02T03:27:28;3.10;;;2.90;;
545;SDS011;259;53.304;9.816;2023-03-02T03:29:53;3.63;;;3.43;;
545;SDS011;259;53.304;9.816;2023-03-02T03:32:19;2.83;;;2.63;;
545;SDS011;259;53.304;9.816;2023-03-02T03:34:45;3.10;;;2.90;;
545;SDS011;259;53.304;9.816;2023-03-02T03:37:12;3.50;;;3.30;;
545;SDS011;259;53.304;9.816;2023-03-02T03:39:42;3.00;;;2.80;;
545;SDS011;259;53.304;9.816;2023-03-02T03:42:08;3.80;;;3.50;;
545;SDS011;259;53.304;9.816;2023-03-02T03:44:34;2.73;;;2.53;;
545;SDS011;259;53.304;9.816;2023-03-02T03:47:00;2.63;;;2.50;;
545;SDS011;259;53.304;9.816;2023-03-02T03:49:26;2.80;;;2.60;;
545;SDS011;259;53.304;9.816;2023-03-02T03:51:52;3.10;;;2.90;;
545;SDS011;259;53.304;9.816;2023-03-02T03:54:18;3.30;;;3.10;;
545;SDS011;259;53.304;9.816;2023-03-02T03:56:45;3.17;;;2.97;;
545;SDS011;259;53.304;9.816;2023-03-02T03:59:15;2.70;;;2.50;;
545;SDS011;259;53.304;9.816;2023-03-02T04:02:04;2.90;;;2.70;;
545;SDS011;259;53.304;9.816;2023-03-02T04:04:31;3.30;;;3.10;;
545;SDS011;259;53.304;9.816;2023-03-02T04:06:59;3.13;;;2.93;;
545;SDS011;259;53.304;9.816;2023-03-02T04:09:24;2.80;;;2.60;;
545;SDS011;259;53.304;9.816;2023-03-02T04:11:52;2.80;;;2.60;;
545;SDS011;259;53.304;9.816;2023-03-02T04:14:20;2.80;;;2.60;;
545;SDS011;259;53.304;9.816;2023-03-02T04:16:47;2.80;;;2.60;;
545;SDS011;259;53.304;9.816;2023-03-02T04:19:14;2.60;;;2.40;;
545;SDS011;259;53.304;9.816;2023-03-02T04:21:45;2.87;;;2.67;;
545;SDS011;259;53.304;9.816;2023-03-02T04:24:14;2.70;;;2.50;;
545;SDS011;259;53.304;9.816;2023-03-02T04:26:43;3.57;;;3.27;;
545;SDS011;259;53.304;9.816;2023-03-02T04:29:09;3.17;;;2.97;;
545;SDS011;259;53.304;9.816;2023-03-02T04:31:36;3.50;;;3.23;;
545;SDS011;259;53.304;9.816;2023-03-02T04:34:03;3.40;;;3.13;;
545;SDS011;259;53.304;9.816;2023-03-02T04:36:32;2.97;;;2.77;;
545;SDS011;259;53.304;9.816;2023-03-02T04:38:59;3.17;;;2.97;;
545;SDS011;259;53.304;9.816;2023-03-02T04:41:25;2.73;;;2.57;;
545;SDS011;259;53.304;9.816;2023-03-02T04:43:51;3.27;;;3.07;;
545;SDS011;259;53.304;9.816;2023-03-02T04:46:18;2.70;;;2.50;;
545;SDS011;259;53.304;9.816;2023-03-02T04:48:47;2.60;;;2.40;;
545;SDS011;259;53.304;9.816;2023-03-02T04:51:15;2.87;;;2.67;;
545;SDS011;259;53.304;9.816;2023-03-02T04:53:56;3.10;;;2.90;;
545;SDS011;259;53.304;9.816;2023-03-02T04:56:25;2.80;;;2.60;;
545;SDS011;259;53.304;9.816;2023-03-02T04:58:50;2.97;;;2.77;;
545;SDS011;259;53.304;9.816;2023-03-02T05:01:17;3.43;;;3.23;;
545;SDS011;259;53.304;9.816;2023-03-02T05:03:43;3.23;;;3.03;;
545;SDS011;259;53.304;9.816;2023-03-02T05:06:09;2.90;;;2.70;;
545;SDS011;259;53.304;9.816;2023-03-02T05:08:35;2.60;;;2.40;;
545;SDS011;259;53.304;9.816;2023-03-02T05:11:02;2.97;;;2.77;;
545;SDS011;259;53.304;9.816;2023-03-02T05:13:29;3.00;;;2.80;;
545;SDS011;259;53.304;9.816;2023-03-02T05:15:54;3.20;;;3.00;;
545;SDS011;259;53.304;9.816;2023-03-02T05:18:22;3.07;;;2.77;;
545;SDS011;259;53.304;9.816;2023-03-02T05:20:48;3.03;;;2.83;;
545;SDS011;259;53.304;9.816;2023-03-02T05:23:15;3.03;;;2.83;;
545;SDS011;259;53.304;9.816;2023-03-02T05:25:48;3.63;;;3.37;;
545;SDS011;259;53.304;9.816;2023-03-02T05:28:15;3.10;;;2.90;;
545;SDS011;259;53.304;9.816;2023-03-02T05:30:42;2.97;;;2.77;;
545;SDS011;259;53.304;9.816;2023-03-02T05:33:08;2.60;;;2.50;;
545;SDS011;259;53.304;9.816;2023-03-02T05:35:33;3.60;;;3.30;;
545;SDS011;259;53.304;9.816;2023-03-02T05:37:59;2.27;;;2.13;;
545;SDS011;259;53.304;9.816;2023-03-02T05:40:25;2.70;;;2.50;;
545;SDS011;259;53.304;9.816;2023-03-02T05:42:51;2.63;;;2.53;;
545;SDS011;259;53.304;9.816;2023-03-02T05:45:22;3.07;;;2.87;;
545;SDS011;259;53.304;9.816;2023-03-02T05:47:50;2.93;;;2.73;;
545;SDS011;259;53.304;9.816;2023-03-02T05:50:17;2.70;;;2.50;;
545;SDS011;259;53.304;9.816;2023-03-02T05:52:43;2.77;;;2.57;;
545;SDS011;259;53.304;9.816;2023-03-02T05:55:11;2.70;;;2.50;;
545;SDS011;259;53.304;9.816;2023-03-02T05:57:38;3.00;;;2.80;;
545;SDS011;259;53.304;9.816;2023-03-02T06:00:04;3.00;;;2.80;;
545;SDS011;259;53.304;9.816;2023-03-02T06:02:33;2.70;;;2.60;;
545;SDS011;259;53.304;9.816;2023-03-02T06:04:59;2.60;;;2.40;;
545;SDS011;259;53.304;9.816;2023-03-02T06:07:25;3.40;;;3.20;;
545;SDS011;259;53.304;9.816;2023-03-02T06:09:51;3.27;;;3.07;;
545;SDS011;259;53.304;9.816;2023-03-02T06:12:17;2.60;;;2.40;;
545;SDS011;259;53.304;9.816;2023-03-02T06:14:43;3.47;;;3.27;;
545;SDS011;259;53.304;9.816;2023-03-02T06:17:09;6.30;;;3.20;;
545;SDS011;259;53.304;9.816;2023-03-02T06:19:34;11.00;;;6.60;;
545;SDS011;259;53.304;9.816;2023-03-02T06:22:00;41.97;;;27.00;;
545;SDS011;259;53.304;9.816;2023-03-02T06:24:26;40.77;;;22.77;;
545;SDS011;259;53.304;9.816;2023-03-02T06:26:52;25.93;;;16.47;;
545;SDS011;259;53.304;9.816;2023-03-02T06:29:19;21.93;;;13.30;;
545;SDS011;259;53.304;9.816;2023-03-02T06:31:45;19.03;;;12.00;;
545;SDS011;259;53.304;9.816;2023-03-02T06:34:11;13.00;;;10.97;;
545;SDS011;259;53.304;9.816;2023-03-02T06:36:37;14.13;;;10.17;;
545;SDS011;259;53.304;9.816;2023-03-02T06:39:03;21.30;;;9.60;;
545;SDS011;259;53.304;9.816;2023-03-02T06:41:30;13.10;;;8.50;;
545;SDS011;259;53.304;9.816;2023-03-02T06:43:58;14.60;;;10.23;;
545;SDS011;259;53.304;9.816;2023-03-02T06:46:24;12.37;;;8.23;;
545;SDS011;259;53.304;9.816;2023-03-02T06:48:50;12.57;;;7.17;;
545;SDS011;259;53.304;9.816;2023-03-02T06:51:16;8.97;;;6.63;;
545;SDS011;259;53.304;9.816;2023-03-02T06:53:42;8.57;;;6.20;;
545;SDS011;259;53.304;9.816;2023-03-02T06:56:08;7.13;;;5.80;;
545;SDS011;259;53.304;9.816;2023-03-02T06:58:34;6.30;;;5.27;;
545;SDS011;259;53.304;9.816;2023-03-02T07:01:01;6.30;;;5.30;;
545;SDS011;259;53.304;9.816;2023-03-02T07:03:27;5.57;;;4.60;;
545;SDS011;259;53.304;9.816;2023-03-02T07:05:53;4.73;;;3.73;;
545;SDS011;259;53.304;9.816;2023-03-02T07:08:19;4.30;;;3.90;;
545;SDS011;259;53.304;9.816;2023-03-02T07:10:44;10.63;;;5.50;;
545;SDS011;259;53.304;9.816;2023-03-02T07:13:10;8.40;;;4.60;;
545;SDS011;259;53.304;9.816;2023-03-02T07:15:37;11.93;;;4.20;;
545;SDS011;259;53.304;9.816;2023-03-02T07:18:04;10.97;;;4.50;;
545;SDS011;259;53.304;9.816;2023-03-02T07:20:30;6.93;;;3.97;;
545;SDS011;259;53.304;9.816;2023-03-02T07:22:55;7.07;;;3.73;;
545;SDS011;259;53.304;9.816;2023-03-02T07:25:21;8.87;;;3.70;;
545;SDS011;259;53.304;9.816;2023-03-02T07:27:47;5.73;;;3.33;;
545;SDS011;259;53.304;9.816;2023-03-02T07:30:12;5.27;;;3.30;;
545;SDS011;259;53.304;9.816;2023-03-02T07:32:39;3.43;;;3.13;;
545;SDS011;259;53.304;9.816;2023-03-02T07:35:06;4.90;;;2.50;;
545;SDS011;259;53.304;9.816;2023-03-02T07:37:32;2.83;;;2.57;;
545;SDS011;259;53.304;9.816;2023-03-02T07:39:58;3.20;;;2.73;;
545;SDS011;259;53.304;9.816;2023-03-02T07:42:23;6.00;;;2.67;;
545;SDS011;259;53.304;9.816;2023-03-02T07:44:51;2.53;;;1.93;;
545;SDS011;259;53.304;9.816;2023-03-02T07:47:18;4.60;;;2.47;;
545;SDS011;259;53.304;9.816;2023-03-02T07:49:43;3.03;;;1.80;;
545;SDS011;259;53.304;9.816;2023-03-02T07:52:09;3.50;;;1.80;;
545;SDS011;259;53.304;9.816;2023-03-02T07:54:35;9.13;;;2.43;;
545;SDS011;259;53.304;9.816;2023-03-02T07:57:01;5.73;;;2.40;;
545;SDS011;259;53.304;9.816;2023-03-02T07:59:27;6.97;;;2.33;;
545;SDS011;259;53.304;9.816;2023-03-02T08:01:53;12.63;;;2.60;;
545;SDS011;259;53.304;9.816;2023-03-02T08:04:20;16.47;;;3.47;;
545;SDS011;259;53.304;9.816;2023-03-02T08:06:45;14.00;;;3.30;;
545;SDS011;259;53.304;9.816;2023-03-02T08:09:11;12.60;;;3.00;;
545;SDS011;259;53.304;9.816;2023-03-02T08:11:37;11.23;;;3.03;;
545;SDS011;259;53.304;9.816;2023-03-02T08:14:03;12.63;;;3.37;;
545;SDS011;259;53.304;9.816;2023-03-02T08:16:28;10.43;;;2.80;;
545;SDS011;259;53.304;9.816;2023-03-02T08:18:54;11.80;;;3.00;;
545;SDS011;259;53.304;9.816;2023-03-02T08:21:21;16.23;;;3.10;;
545;SDS011;259;53.304;9.816;2023-03-02T08:23:49;11.87;;;3.00;;
545;SDS011;259;53.304;9.816;2023-03-02T08:26:15;9.83;;;3.40;;
545;SDS011;259;53.304;9.816;2023-03-02T08:28:42;15.13;;;2.63;;
545;SDS011;259;53.304;9.816;2023-03-02T08:31:09;12.93;;;3.33;;
545;SDS011;259;53.304;9.816;2023-03-02T08:33:35;14.67;;;2.80;;
545;SDS011;259;53.304;9.816;2023-03-02T08:36:10;10.40;;;2.60;;
545;SDS011;259;53.304;9.816;2023-03-02T08:38:39;7.73;;;3.00;;
545;SDS011;259;53.304;9.816;2023-03-02T08:41:07;8.40;;;2.30;;
545;SDS011;259;53.304;9.816;2023-03-02T08:43:38;15.33;;;2.70;;
545;SDS011;259;53.304;9.816;2023-03-02T08:46:04;7.83;;;2.30;;
545;SDS011;259;53.304;9.816;2023-03-02T08:48:30;5.67;;;2.23;;
545;SDS011;259;53.304;9.816;2023-03-02T08:50:56;4.87;;;1.90;;
545;SDS011;259;53.304;9.816;2023-03-02T08:53:24;7.90;;;2.30;;
545;SDS011;259;53.304;9.816;2023-03-02T08:55:50;6.43;;;2.90;;
545;SDS011;259;53.304;9.816;2023-03-02T08:58:16;6.83;;;1.80;;
545;SDS011;259;53.304;9.816;2023-03-02T09:00:43;9.97;;;2.57;;
545;SDS011;259;53.304;9.816;2023-03-02T09:03:08;4.20;;;2.20;;
545;SDS011;259;53.304;9.816;2023-03-02T09:05:34;5.60;;;2.00;;
545;SDS011;259;53.304;9.816;2023-03-02T09:08:00;25.70;;;3.80;;
545;SDS011;259;53.304;9.816;2023-03-02T09:10:27;13.33;;;3.67;;
545;SDS011;259;53.304;9.816;2023-03-02T09:12:52;8.03;;;2.90;;
545;SDS011;259;53.304;9.816;2023-03-02T09:15:18;7.40;;;3.57;;
545;SDS011;259;53.304;9.816;2023-03-02T09:17:44;8.70;;;2.77;;
545;SDS011;259;53.304;9.816;2023-03-02T09:20:10;8.47;;;2.77;;
545;SDS011;259;53.304;9.816;2023-03-02T09:22:36;8.33;;;2.70;;
545;SDS011;259;53.304;9.816;2023-03-02T09:25:02;11.20;;;2.87;;
545;SDS011;259;53.304;9.816;2023-03-02T09:27:29;7.40;;;2.60;;
545;SDS011;259;53.304;9.816;2023-03-02T09:29:55;5.83;;;2.77;;
545;SDS011;259;53.304;9.816;2023-03-02T09:32:21;4.73;;;2.80;;
545;SDS011;259;53.304;9.816;2023-03-02T09:34:47;3.40;;;1.97;;
545;SDS011;259;53.304;9.816;2023-03-02T09:37:13;6.17;;;2.10;;
545;SDS011;259;53.304;9.816;2023-03-02T09:39:39;3.60;;;2.30;;
545;SDS011;259;53.304;9.816;2023-03-02T09:47:54;3.70;;;1.33;;
545;SDS011;259;53.304;9.816;2023-03-02T09:50:36;4.93;;;2.07;;
545;SDS011;259;53.304;9.816;2023-03-02T09:56:16;7.37;;;2.00;;
545;SDS011;259;53.304;9.816;2023-03-02T09:58:48;7.30;;;2.30;;
545;SDS011;259;53.304;9.816;2023-03-02T10:01:33;6.03;;;1.80;;
545;SDS011;259;53.304;9.816;2023-03-02T10:06:54;5.43;;;1.93;;
545;SDS011;259;53.304;9.816;2023-03-02T10:09:24;4.83;;;1.80;;
545;SDS011;259;53.304;9.816;2023-03-02T10:11:56;2.23;;;1.50;;
545;SDS011;259;53.304;9.816;2023-03-02T10:17:42;4.50;;;1.40;;
545;SDS011;259;53.304;9.816;2023-03-02T10:23:35;1.90;;;1.30;;
545;SDS011;259;53.304;9.816;2023-03-02T10:31:58;4.70;;;1.47;;
545;SDS011;259;53.304;9.816;2023-03-02T10:34:37;2.07;;;1.77;;
545;SDS011;259;53.304;9.816;2023-03-02T10:37:08;1.03;;;0.93;;
545;SDS011;259;53.304;9.816;2023-03-02T10:39:40;1.60;;;1.50;;
545;SDS011;259;53.304;9.816;2023-03-02T10:42:06;1.67;;;1.50;;
545;SDS011;259;53.304;9.816;2023-03-02T10:44:42;1.80;;;1.70;;
545;SDS011;259;53.304;9.816;2023-03-02T10:49:53;3.07;;;1.47;;
545;SDS011;259;53.304;9.816;2023-03-02T10:52:25;1.13;;;1.13;;
545;SDS011;259;53.304;9.816;2023-03-02T10:55:02;1.60;;;1.50;;
545;SDS011;259;53.304;9.816;2023-03-02T10:57:40;1.33;;;1.33;;
545;SDS011;259;53.304;9.816;2023-03-02T11:00:21;1.50;;;1.40;;
545;SDS011;259;53.304;9.816;2023-03-02T11:05:45;14.87;;;2.80;;
545;SDS011;259;53.304;9.816;2023-03-02T11:08:21;9.77;;;2.50;;
545;SDS011;259;53.304;9.816;2023-03-02T11:10:57;11.53;;;2.97;;
545;SDS011;259;53.304;9.816;2023-03-02T11:13:35;11.87;;;2.83;;
545;SDS011;259;53.304;9.816;2023-03-02T11:16:03;6.57;;;2.70;;
545;SDS011;259;53.304;9.816;2023-03-02T11:29:44;3.50;;;1.70;;
545;SDS011;259;53.304;9.816;2023-03-02T11:32:19;6.60;;;2.50;;
545;SDS011;259;53.304;9.816;2023-03-02T11:35:02;13.30;;;2.67;;
545;SDS011;259;53.304;9.816;2023-03-02T11:37:45;5.23;;;2.07;;
545;SDS011;259;53.304;9.816;2023-03-02T11:40:35;4.87;;;1.80;;
545;SDS011;259;53.304;9.816;2023-03-02T11:43:09;3.53;;;1.70;;
545;SDS011;259;53.304;9.816;2023-03-02T11:45:39;6.90;;;3.70;;
545;SDS011;259;53.304;9.816;2023-03-02T11:48:26;5.03;;;2.00;;
545;SDS011;259;53.304;9.816;2023-03-02T11:53:39;6.27;;;2.03;;
545;SDS011;259;53.304;9.816;2023-03-02T11:56:31;15.63;;;2.53;;
545;SDS011;259;53.304;9.816;2023-03-02T11:59:01;8.23;;;3.03;;
545;SDS011;259;53.304;9.816;2023-03-02T12:01:32;18.53;;;2.83;;
545;SDS011;259;53.304;9.816;2023-03-02T12:04:10;12.83;;;3.07;;
545;SDS011;259;53.304;9.816;2023-03-02T12:06:52;9.60;;;3.07;;
545;SDS011;259;53.304;9.816;2023-03-02T12:11:51;13.47;;;2.87;;
545;SDS011;259;53.304;9.816;2023-03-02T12:14:26;14.57;;;3.20;;
545;SDS011;259;53.304;9.816;2023-03-02T12:17:21;17.63;;;5.50;;
545;SDS011;259;53.304;9.816;2023-03-02T12:19:47;20.00;;;8.70;;
545;SDS011;259;53.304;9.816;2023-03-02T12:22:24;16.40;;;7.17;;
545;SDS011;259;53.304;9.816;2023-03-02T12:25:06;9.67;;;5.30;;
545;SDS011;259;53.304;9.816;2023-03-02T12:27:44;13.20;;;4.70;;
545;SDS011;259;53.304;9.816;2023-03-02T12:32:58;20.93;;;5.83;;
545;SDS011;259;53.304;9.816;2023-03-02T12:35:29;12.20;;;5.40;;
545;SDS011;259;53.304;9.816;2023-03-02T12:37:59;16.93;;;5.20;;
545;SDS011;259;53.304;9.816;2023-03-02T12:48:59;20.17;;;4.53;;
545;SDS011;259;53.304;9.816;2023-03-02T12:54:20;11.57;;;4.37;;
545;SDS011;259;53.304;9.816;2023-03-02T12:57:04;12.83;;;4.13;;
545;SDS011;259;53.304;9.816;2023-03-02T12:59:49;12.23;;;4.47;;
545;SDS011;259;53.304;9.816;2023-03-02T13:02:18;9.37;;;3.83;;
545;SDS011;259;53.304;9.816;2023-03-02T13:04:51;7.47;;;4.03;;
545;SDS011;259;53.304;9.816;2023-03-02T13:07:27;10.10;;;4.33;;
545;SDS011;259;53.304;9.816;2023-03-02T13:10:00;10.57;;;4.63;;
545;SDS011;259;53.304;9.816;2023-03-02T13:12:36;5.87;;;3.80;;
545;SDS011;259;53.304;9.816;2023-03-02T13:15:12;16.50;;;4.63;;
545;SDS011;259;53.304;9.816;2023-03-02T13:17:41;13.20;;;4.80;;
545;SDS011;259;53.304;9.816;2023-03-02T13:20:08;16.50;;;5.33;;
545;SDS011;259;53.304;9.816;2023-03-02T13:22:38;12.10;;;6.43;;
545;SDS011;259;53.304;9.816;2023-03-02T13:25:05;14.63;;;5.60;;
545;SDS011;259;53.304;9.816;2023-03-02T13:28:03;14.77;;;5.37;;
545;SDS011;259;53.304;9.816;2023-03-02T13:30:32;13.60;;;6.50;;
545;SDS011;259;53.304;9.816;2023-03-02T13:33:02;16.03;;;6.67;;
545;SDS011;259;53.304;9.816;2023-03-02T13:35:45;22.00;;;7.27;;
545;SDS011;259;53.304;9.816;2023-03-02T13:38:15;40.77;;;23.30;;
545;SDS011;259;53.304;9.816;2023-03-02T13:40:47;34.67;;;17.50;;
545;SDS011;259;53.304;9.816;2023-03-02T13:46:38;25.57;;;14.47;;
545;SDS011;259;53.304;9.816;2023-03-02T13:48:57;26.77;;;15.20;;
545;SDS011;259;53.304;9.816;2023-03-02T13:51:29;25.10;;;15.33;;
545;SDS011;259;53.304;9.816;2023-03-02T13:53:59;16.30;;;13.43;;
545;SDS011;259;53.304;9.816;2023-03-02T13:56:36;21.80;;;13.20;;
545;SDS011;259;53.304;9.816;2023-03-02T13:59:07;19.83;;;14.83;;
545;SDS011;259;53.304;9.816;2023-03-02T14:01:38;20.60;;;16.10;;
545;SDS011;259;53.304;9.816;2023-03-02T14:04:14;28.60;;;20.13;;
545;SDS011;259;53.304;9.816;2023-03-02T14:06:48;34.73;;;18.10;;
545;SDS011;259;53.304;9.816;2023-03-02T14:09:15;28.47;;;17.37;;
545;SDS011;259;53.304;9.816;2023-03-02T14:11:43;36.47;;;19.67;;
545;SDS011;259;53.304;9.816;2023-03-02T14:14:11;26.70;;;18.10;;
545;SDS011;259;53.304;9.816;2023-03-02T14:16:41;24.43;;;16.87;;
545;SDS011;259;53.304;9.816;2023-03-02T14:19:08;26.13;;;16.57;;
545;SDS011;259;53.304;9.816;2023-03-02T14:21:37;29.67;;;17.63;;
545;SDS011;259;53.304;9.816;2023-03-02T14:24:04;22.37;;;16.77;;
545;SDS011;259;53.304;9.816;2023-03-02T14:26:34;24.00;;;15.70;;
545;SDS011;259;53.304;9.816;2023-03-02T14:29:14;19.43;;;15.30;;
545;SDS011;259;53.304;9.816;2023-03-02T14:31:53;16.30;;;14.30;;
545;SDS011;259;53.304;9.816;2023-03-02T14:34:20;19.13;;;15.33;;
545;SDS011;259;53.304;9.816;2023-03-02T14:36:47;17.03;;;15.37;;
545;SDS011;259;53.304;9.816;2023-03-02T14:39:21;19.03;;;15.17;;
545;SDS011;259;53.304;9.816;2023-03-02T14:42:02;30.03;;;15.40;;
545;SDS011;259;53.304;9.816;2023-03-02T14:44:43;23.50;;;16.23;;
545;SDS011;259;53.304;9.816;2023-03-02T14:47:11;32.70;;;17.33;;
545;SDS011;259;53.304;9.816;2023-03-02T14:49:40;30.73;;;17.20;;
545;SDS011;259;53.304;9.816;2023-03-02T14:52:29;28.93;;;18.40;;
545;SDS011;259;53.304;9.816;2023-03-02T14:55:14;28.10;;;17.67;;
545;SDS011;259;53.304;9.816;2023-03-02T14:57:53;29.13;;;15.53;;
545;SDS011;259;53.304;9.816;2023-03-02T15:00:22;28.93;;;16.80;;
545;SDS011;259;53.304;9.816;2023-03-02T15:02:49;26.00;;;17.30;;
545;SDS011;259;53.304;9.816;2023-03-02T15:05:15;22.00;;;16.90;;
545;SDS011;259;53.304;9.816;2023-03-02T15:07:41;28.07;;;16.73;;
545;SDS011;259;53.304;9.816;2023-03-02T15:10:09;23.60;;;15.07;;
545;SDS011;259;53.304;9.816;2023-03-02T15:12:39;17.50;;;13.90;;
545;SDS011;259;53.304;9.816;2023-03-02T15:15:05;18.90;;;14.93;;
545;SDS011;259;53.304;9.816;2023-03-02T15:17:31;25.90;;;15.30;;
545;SDS011;259;53.304;9.816;2023-03-02T15:19:57;15.77;;;14.13;;
545;SDS011;259;53.304;9.816;2023-03-02T15:22:23;26.43;;;15.23;;
545;SDS011;259;53.304;9.816;2023-03-02T15:24:48;20.00;;;14.37;;
545;SDS011;259;53.304;9.816;2023-03-02T15:27:14;19.00;;;14.83;;
545;SDS011;259;53.304;9.816;2023-03-02T15:29:43;20.47;;;14.63;;
545;SDS011;259;53.304;9.816;2023-03-02T15:32:10;25.60;;;14.93;;
545;SDS011;259;53.304;9.816;2023-03-02T15:34:37;27.70;;;15.63;;
545;SDS011;259;53.304;9.816;2023-03-02T15:37:02;24.10;;;14.63;;
545;SDS011;259;53.304;9.816;2023-03-02T15:39:28;23.13;;;14.20;;
545;SDS011;259;53.304;9.816;2023-03-02T15:41:54;19.80;;;14.53;;
545;SDS011;259;53.304;9.816;2023-03-02T15:44:20;14.80;;;13.40;;
545;SDS011;259;53.304;9.816;2023-03-02T15:46:48;16.30;;;14.60;;
545;SDS011;259;53.304;9.816;2023-03-02T15:49:16;17.57;;;14.20;;
545;SDS011;259;53.304;9.816;2023-03-02T15:51:48;16.30;;;14.80;;
545;SDS011;259;53.304;9.816;2023-03-02T15:54:23;16.30;;;14.20;;
545;SDS011;259;53.304;9.816;2023-03-02T15:56:50;21.10;;;14.00;;
545;SDS011;259;53.304;9.816;2023-03-02T15:59:17;20.20;;;14.40;;
545;SDS011;259;53.304;9.816;2023-03-02T16:01:44;19.40;;;13.50;;
545;SDS011;259;53.304;9.816;2023-03-02T16:04:10;17.07;;;13.80;;
545;SDS011;259;53.304;9.816;2023-03-02T16:06:37;14.70;;;13.17;;
545;SDS011;259;53.304;9.816;2023-03-02T16:09:03;19.30;;;12.80;;
545;SDS011;259;53.304;9.816;2023-03-02T16:11:29;13.93;;;12.43;;
545;SDS011;259;53.304;9.816;2023-03-02T16:13:55;22.70;;;14.00;;
545;SDS011;259;53.304;9.816;2023-03-02T16:16:21;22.30;;;13.90;;
545;SDS011;259;53.304;9.816;2023-03-02T16:18:54;22.17;;;12.50;;
545;SDS011;259;53.304;9.816;2023-03-02T16:21:22;22.17;;;14.30;;
545;SDS011;259;53.304;9.816;2023-03-02T16:23:48;21.43;;;13.63;;
545;SDS011;259;53.304;9.816;2023-03-02T16:26:16;16.43;;;12.90;;
545;SDS011;259;53.304;9.816;2023-03-02T16:28:44;22.80;;;12.87;;
545;SDS011;259;53.304;9.816;2023-03-02T16:31:15;21.77;;;13.80;;
545;SDS011;259;53.304;9.816;2023-03-02T16:33:43;19.53;;;13.47;;
545;SDS011;259;53.304;9.816;2023-03-02T16:36:11;17.80;;;12.73;;
545;SDS011;259;53.304;9.816;2023-03-02T16:38:38;18.17;;;12.67;;
545;SDS011;259;53.304;9.816;2023-03-02T16:41:04;15.33;;;12.50;;
545;SDS011;259;53.304;9.816;2023-03-02T16:43:42;16.80;;;11.90;;
545;SDS011;259;53.304;9.816;2023-03-02T16:46:20;15.83;;;12.50;;
545;SDS011;259;53.304;9.816;2023-03-02T16:48:48;13.40;;;12.13;;
545;SDS011;259;53.304;9.816;2023-03-02T16:51:14;15.00;;;12.53;;
545;SDS011;259;53.304;9.816;2023-03-02T16:53:42;17.30;;;12.70;;
545;SDS011;259;53.304;9.816;2023-03-02T16:56:08;13.37;;;11.27;;
545;SDS011;259;53.304;9.816;2023-03-02T16:58:36;13.57;;;12.27;;
545;SDS011;259;53.304;9.816;2023-03-02T17:01:07;15.10;;;12.83;;
545;SDS011;259;53.304;9.816;2023-03-02T17:03:36;13.47;;;12.17;;
545;SDS011;259;53.304;9.816;2023-03-02T17:06:03;15.07;;;13.00;;